Dubuque (DBQ/KDBQ)

Map

Destinations

Information

Location
Dubuque, Iowa
Local Time
20:38 / 8:38 pm
GMT Time
02:38 / 2:38 am
Gates
Unassigned
No FAA reported delays
METAR KDBQ 170213Z AUTO 04005KT 1/4SM R36/1200V2000FT FG VV002 01/01 A2989 RMK AO2 T00060006
TAF KDBQ 162332Z 1700/1724 10005KT 2SM -DZ BR OVC003 FM170100 08005KT 1/2SM -DZ FG OVC002 TEMPO 1703/1705 2SM -RA BR OVC004 FM171300 33007KT 1SM BR OVC003 FM171600 30008KT 3SM BR OVC006
  • No charts available